Time;durP1;ratioP1;P1;durP2;ratioP2;P2;SDS_P1;SDS_P2;PMS_P1;PMS_P2;Temp;Humidity;BMP_temperature;BMP_pressure;BME280_temperature;BME280_humidity;BME280_pressure;Samples;Min_cycle;Max_cycle;Signal;HPM_P1;HPM_P2
2023/12/07 00:00:29;;;;;;;57.63;27.60;;;;;;;0.99;100.00;101958.44;5084114;27;20856;-74
2023/12/07 00:02:54;;;;;;;66.53;32.15;;;;;;;0.94;100.00;101960.22;5056179;28;20040;-74
2023/12/07 00:05:20;;;;;;;63.05;30.77;;;;;;;0.87;100.00;101958.53;5074825;28;20037;-74
2023/12/07 00:07:45;;;;;;;58.75;31.40;;;;;;;0.77;100.00;101963.84;5073639;28;20102;-74
2023/12/07 00:10:11;;;;;;;68.25;32.17;;;;;;;0.72;100.00;101959.47;5079074;28;20106;-74
2023/12/07 00:12:36;;;;;;;66.32;33.30;;;;;;;0.50;100.00;101959.59;5083981;28;20103;-74
2023/12/07 00:15:02;;;;;;;56.03;29.48;;;;;;;0.59;100.00;101963.03;5073642;28;20037;-74
2023/12/07 00:17:28;;;;;;;54.97;28.77;;;;;;;0.49;100.00;101949.06;5077036;28;20377;-75
2023/12/07 00:19:53;;;;;;;61.90;30.30;;;;;;;0.50;100.00;101950.81;5080377;28;20044;-73
2023/12/07 00:22:20;;;;;;;51.78;27.95;;;;;;;0.50;100.00;101958.69;5080291;28;20048;-74
2023/12/07 00:24:45;;;;;;;67.00;31.48;;;;;;;0.48;100.00;101950.81;5076666;28;20032;-74
2023/12/07 00:27:11;;;;;;;57.00;27.73;;;;;;;0.42;100.00;101960.47;5083022;28;20028;-74
2023/12/07 00:29:39;;;;;;;55.60;28.85;;;;;;;0.39;100.00;101952.59;5073725;28;20110;-74
2023/12/07 00:32:05;;;;;;;56.55;28.30;;;;;;;0.39;100.00;101956.09;5074174;28;20032;-73
2023/12/07 00:34:30;;;;;;;63.60;32.20;;;;;;;0.39;100.00;101961.34;5074586;28;20032;-74
2023/12/07 00:36:56;;;;;;;53.13;26.48;;;;;;;0.38;100.00;101957.00;5085815;27;23585;-73
2023/12/07 00:39:21;;;;;;;60.72;28.55;;;;;;;0.34;100.00;101952.63;5054889;28;20036;-73
2023/12/07 00:41:47;;;;;;;51.83;28.63;;;;;;;0.31;100.00;101959.66;5075213;28;20034;-73
2023/12/07 00:44:14;;;;;;;52.88;26.73;;;;;;;0.32;100.00;101957.00;5072486;28;20028;-73
2023/12/07 00:46:40;;;;;;;52.83;27.70;;;;;;;0.27;100.00;101960.53;5072661;28;20040;-73
2023/12/07 00:49:05;;;;;;;50.10;26.17;;;;;;;0.27;100.00;101957.91;5071881;28;20345;-74
2023/12/07 00:51:31;;;;;;;48.25;26.90;;;;;;;0.24;100.00;101964.03;5088061;27;20921;-74
2023/12/07 00:53:57;;;;;;;46.03;22.92;;;;;;;0.27;100.00;101960.53;5072972;28;20029;-73
2023/12/07 00:56:22;;;;;;;48.72;24.95;;;;;;;0.20;100.00;101965.81;5064959;28;20053;-74
2023/12/07 00:58:48;;;;;;;56.72;25.73;;;;;;;0.15;100.00;101966.66;5077641;28;20047;-73
2023/12/07 01:01:13;;;;;;;70.97;27.02;;;;;;;0.11;100.00;101971.06;5077469;27;20040;-73
2023/12/07 01:03:40;;;;;;;95.45;27.27;;;;;;;0.08;100.00;101970.19;5084114;28;33918;-74
2023/12/07 01:06:06;;;;;;;73.38;32.00;;;;;;;0.12;100.00;101970.19;5073453;28;20040;-73
2023/12/07 01:08:32;;;;;;;57.88;27.42;;;;;;;0.02;100.00;101973.69;5055311;28;20090;-74
2023/12/07 01:10:57;;;;;;;58.92;28.10;;;;;;;-0.06;100.00;101973.69;5077397;27;20605;-73
2023/12/07 01:13:23;;;;;;;54.90;27.98;;;;;;;0.01;100.00;101966.72;5072950;28;20888;-73
2023/12/07 01:15:49;;;;;;;61.10;28.55;;;;;;;0.03;100.00;101974.56;5072599;28;20041;-73
2023/12/07 01:18:15;;;;;;;54.53;28.42;;;;;;;0.04;100.00;101968.44;5072162;28;20152;-74
2023/12/07 01:20:41;;;;;;;55.45;28.48;;;;;;;0.01;100.00;101969.34;5077777;28;20310;-74
2023/12/07 01:23:08;;;;;;;73.22;32.33;;;;;;;-0.11;100.00;101966.72;5072840;28;20110;-73
2023/12/07 01:25:34;;;;;;;68.32;32.17;;;;;;;-0.13;100.00;101965.84;5072054;28;20047;-73
2023/12/07 01:28:00;;;;;;;56.30;28.98;;;;;;;-0.06;100.00;101967.56;5072677;28;20040;-73
2023/12/07 01:30:25;;;;;;;61.55;29.10;;;;;;;-0.14;100.00;101962.38;5072824;28;20447;-74
2023/12/07 01:32:51;;;;;;;65.88;29.80;;;;;;;-0.20;100.00;101964.09;5073065;28;20067;-73
2023/12/07 01:35:16;;;;;;;67.00;30.08;;;;;;;-0.33;100.00;101961.50;5080126;28;20751;-73
2023/12/07 01:37:42;;;;;;;81.35;33.92;;;;;;;-0.31;100.00;101958.88;5063294;28;20052;-75
2023/12/07 01:40:10;;;;;;;131.23;33.90;;;;;;;-0.24;100.00;101959.75;5060071;28;20033;-73
2023/12/07 01:42:38;;;;;;;70.10;27.58;;;;;;;-0.27;100.00;101961.50;5079178;28;20068;-73
2023/12/07 01:45:07;;;;;;;104.45;30.02;;;;;;;-0.28;100.00;101962.38;5072767;28;20096;-73
2023/12/07 01:47:35;;;;;;;233.57;41.33;;;;;;;-0.22;100.00;101963.25;5057569;28;20066;-73
2023/12/07 01:50:04;;;;;;;174.32;36.78;;;;;;;-0.24;100.00;101967.63;5074862;28;20040;-73
2023/12/07 01:52:30;;;;;;;112.07;33.42;;;;;;;-0.24;100.00;101981.59;5057640;28;20037;-74
2023/12/07 01:54:57;;;;;;;199.85;39.15;;;;;;;-0.23;100.00;101978.09;5078765;28;20047;-74
2023/12/07 01:57:22;;;;;;;125.35;39.78;;;;;;;-0.29;100.00;101978.97;5059277;28;20078;-73
2023/12/07 01:59:49;;;;;;;89.50;33.70;;;;;;;-0.46;100.00;101985.94;5077669;28;20024;-74
2023/12/07 02:02:15;;;;;;;73.05;33.40;;;;;;;-0.48;100.00;101981.59;5077738;27;20036;-73
2023/12/07 02:04:41;;;;;;;58.50;30.67;;;;;;;-0.44;100.00;101983.34;5084075;28;20041;-73
2023/12/07 02:07:07;;;;;;;64.90;33.03;;;;;;;-0.39;100.00;101986.84;5079534;28;20147;-73
2023/12/07 02:09:33;;;;;;;62.22;29.23;;;;;;;-0.34;100.00;101975.47;5066040;28;20036;-73
2023/12/07 02:12:00;;;;;;;68.50;32.15;;;;;;;-0.30;100.00;101973.75;5078416;28;20040;-74
2023/12/07 02:14:25;;;;;;;56.80;31.27;;;;;;;-0.34;100.00;101975.47;5075459;28;20047;-73
2023/12/07 02:16:57;;;;;;;62.63;28.63;;;;;;;-0.33;100.00;101979.84;5074178;28;20043;-73
2023/12/07 02:19:49;;;;;;;65.00;31.70;;;;;;;-0.34;100.00;101977.22;5056905;28;20044;-73
2023/12/07 02:22:21;;;;;;;58.97;30.17;;;;;;;-0.36;100.00;101985.06;5075507;28;20044;-74
2023/12/07 02:25:14;;;;;;;61.05;31.63;;;;;;;-0.30;100.00;101973.75;5077724;28;20028;-73
2023/12/07 02:27:45;;;;;;;60.40;29.25;;;;;;;-0.31;100.00;101980.69;5081038;28;20040;-73
2023/12/07 02:30:12;;;;;;;57.45;29.90;;;;;;;-0.30;100.00;101985.09;5056686;28;20033;-73
2023/12/07 02:32:38;;;;;;;56.25;29.60;;;;;;;-0.32;100.00;101978.09;5075750;28;21298;-73
2023/12/07 02:35:05;;;;;;;59.83;29.52;;;;;;;-0.31;100.00;101979.84;5081508;28;20032;-73
2023/12/07 02:37:37;;;;;;;61.72;30.65;;;;;;;-0.35;100.00;101978.09;5079560;28;20045;-73
2023/12/07 02:40:05;;;;;;;56.58;29.25;;;;;;;-0.34;100.00;101969.38;5080277;28;20035;-73
2023/12/07 02:42:33;;;;;;;59.72;30.48;;;;;;;-0.32;100.00;101965.84;5057080;28;20110;-73
2023/12/07 02:44:59;;;;;;;53.92;28.83;;;;;;;-0.39;100.00;101963.25;5075480;28;20040;-73
2023/12/07 02:47:25;;;;;;;56.75;30.75;;;;;;;-0.37;100.00;101969.34;5078395;28;20098;-73
2023/12/07 02:49:50;;;;;;;63.40;30.67;;;;;;;-0.34;100.00;101962.38;5075007;28;20039;-74
2023/12/07 02:52:15;;;;;;;76.32;33.00;;;;;;;-0.40;100.00;101961.50;5080050;28;20037;-73
2023/12/07 02:54:41;;;;;;;153.75;38.33;;;;;;;-0.49;100.00;101966.75;5081485;28;20119;-73
2023/12/07 02:57:07;;;;;;;96.18;34.63;;;;;;;-0.28;100.00;101959.75;5081514;28;20055;-73
2023/12/07 02:59:32;;;;;;;137.85;37.60;;;;;;;-0.31;100.00;101951.88;5079483;28;20029;-73
2023/12/07 03:01:57;;;;;;;266.33;55.28;;;;;;;-0.25;100.00;101951.03;5080834;27;20058;-74
2023/12/07 03:04:23;;;;;;;221.15;50.22;;;;;;;-0.19;100.00;101948.41;5079824;28;20530;-74
2023/12/07 03:06:48;;;;;;;175.77;39.33;;;;;;;-0.11;100.00;101945.75;5085101;27;20126;-73
2023/12/07 03:09:14;;;;;;;163.60;43.75;;;;;;;-0.08;100.00;101951.00;5078074;28;20032;-73
2023/12/07 03:11:39;;;;;;;116.95;39.67;;;;;;;-0.06;100.00;101951.84;5078335;28;20031;-73
2023/12/07 03:14:04;;;;;;;154.57;42.28;;;;;;;0.02;100.00;101960.59;5074711;28;20046;-74
2023/12/07 03:16:30;;;;;;;182.35;44.85;;;;;;;-0.01;100.00;101956.22;5076502;28;20229;-73
2023/12/07 03:18:55;;;;;;;177.75;46.17;;;;;;;0.06;100.00;101943.97;5076138;28;20449;-74
2023/12/07 03:21:21;;;;;;;221.63;43.97;;;;;;;-0.05;100.00;101951.88;5076069;28;33671;-73
2023/12/07 03:23:47;;;;;;;145.18;42.53;;;;;;;0.07;100.00;101952.72;5080995;27;20051;-73
2023/12/07 03:26:12;;;;;;;205.75;45.55;;;;;;;0.11;100.00;101957.94;5082761;27;20036;-73
2023/12/07 03:28:38;;;;;;;158.10;41.67;;;;;;;0.07;100.00;101945.72;5076876;28;20032;-73
2023/12/07 03:31:03;;;;;;;146.07;41.63;;;;;;;-0.15;100.00;101950.16;5077506;28;20187;-74
2023/12/07 03:33:29;;;;;;;115.00;42.15;;;;;;;-0.06;100.00;101941.38;5076644;27;20051;-73
2023/12/07 03:35:54;;;;;;;123.95;42.97;;;;;;;-0.16;100.00;101955.38;5075003;28;20032;-73
2023/12/07 03:38:20;;;;;;;78.45;38.10;;;;;;;-0.16;100.00;101961.47;5074358;28;20044;-73
2023/12/07 03:40:47;;;;;;;171.27;45.33;;;;;;;-0.53;100.00;101961.50;5084613;28;20818;-74
2023/12/07 03:43:13;;;;;;;114.03;40.50;;;;;;;-0.27;100.00;101963.25;5077548;28;20029;-73
2023/12/07 03:45:38;;;;;;;107.50;38.08;;;;;;;-0.17;100.00;101964.97;5089706;28;20073;-74
2023/12/07 03:48:04;;;;;;;95.78;37.10;;;;;;;-0.06;100.00;101962.34;5057619;28;20794;-73
2023/12/07 03:50:30;;;;;;;84.20;38.58;;;;;;;-0.03;100.00;101967.59;5059444;28;20033;-74
2023/12/07 03:52:55;;;;;;;86.18;37.55;;;;;;;-0.02;100.00;101966.72;5078847;28;20043;-73
2023/12/07 03:55:20;;;;;;;90.32;39.47;;;;;;;-0.24;100.00;101967.63;5077504;28;20426;-73
2023/12/07 03:57:46;;;;;;;92.63;38.55;;;;;;;-0.18;100.00;101970.22;5077969;27;20461;-73
2023/12/07 04:00:12;;;;;;;88.10;37.33;;;;;;;-0.09;100.00;101972.84;5084309;28;20087;-74
2023/12/07 04:02:38;;;;;;;77.90;36.53;;;;;;;-0.05;100.00;101969.31;5074129;27;20040;-73
2023/12/07 04:05:04;;;;;;;73.65;34.67;;;;;;;-0.05;100.00;101975.47;5061760;28;20713;-73
2023/12/07 04:07:29;;;;;;;75.82;36.80;;;;;;;-0.03;100.00;101964.97;5076625;28;20032;-72
2023/12/07 04:09:57;;;;;;;74.93;35.97;;;;;;;-0.01;100.00;101969.31;5075609;28;20068;-73
2023/12/07 04:12:23;;;;;;;82.65;37.38;;;;;;;0.09;100.00;101970.19;5068986;28;20033;-73
2023/12/07 04:14:50;;;;;;;81.32;36.17;;;;;;;0.11;100.00;101968.44;5076541;28;20101;-74
2023/12/07 04:17:15;;;;;;;73.95;35.13;;;;;;;0.18;100.00;101964.03;5072828;28;20036;-73
2023/12/07 04:19:40;;;;;;;78.07;34.70;;;;;;;0.27;100.00;101966.66;5054270;28;20068;-73
2023/12/07 04:22:06;;;;;;;78.03;36.20;;;;;;;0.20;100.00;101970.16;5083661;28;20035;-73
2023/12/07 04:24:31;;;;;;;80.88;35.95;;;;;;;0.19;100.00;101964.03;5079648;28;20110;-74
2023/12/07 04:26:57;;;;;;;74.25;37.05;;;;;;;0.23;100.00;101965.78;5088586;27;20024;-73
2023/12/07 04:29:22;;;;;;;77.63;37.63;;;;;;;0.24;100.00;101971.88;5072835;28;20064;-73
2023/12/07 04:31:48;;;;;;;75.50;38.40;;;;;;;0.27;100.00;101969.28;5077996;27;20040;-73
2023/12/07 04:34:13;;;;;;;83.60;39.88;;;;;;;0.30;100.00;101965.75;5078493;28;20526;-73
2023/12/07 04:36:39;;;;;;;88.70;41.38;;;;;;;0.25;100.00;101969.28;5080380;28;20049;-74
2023/12/07 04:39:04;;;;;;;82.70;39.53;;;;;;;0.28;100.00;101972.75;5073494;28;20040;-74
2023/12/07 04:41:29;;;;;;;72.65;35.38;;;;;;;0.03;100.00;101970.19;5075383;28;20038;-73
2023/12/07 04:43:55;;;;;;;63.45;33.00;;;;;;;0.18;100.00;101967.53;5074115;28;20833;-73
2023/12/07 04:46:20;;;;;;;79.88;37.25;;;;;;;-0.10;100.00;101965.84;5071719;28;20894;-73
2023/12/07 04:48:46;;;;;;;73.22;35.47;;;;;;;0.02;100.00;101965.84;5072397;28;20123;-73
2023/12/07 04:51:11;;;;;;;75.90;36.33;;;;;;;0.08;100.00;101971.06;5056745;28;20037;-74
2023/12/07 04:53:37;;;;;;;72.30;35.55;;;;;;;0.01;100.00;101971.97;5073286;28;20032;-73
2023/12/07 04:56:02;;;;;;;70.55;36.10;;;;;;;0.01;100.00;101969.34;5071653;28;20046;-73
2023/12/07 04:58:28;;;;;;;69.40;34.03;;;;;;;0.07;100.00;101979.81;5073278;28;20032;-74
2023/12/07 05:00:53;;;;;;;68.03;33.83;;;;;;;0.09;100.00;101985.03;5071481;28;20033;-73
2023/12/07 05:03:19;;;;;;;57.47;31.40;;;;;;;0.10;100.00;101986.78;5052616;28;20757;-74
2023/12/07 05:05:44;;;;;;;68.28;34.95;;;;;;;0.10;100.00;101990.31;5071875;28;20135;-73
2023/12/07 05:08:10;;;;;;;60.70;33.22;;;;;;;0.19;100.00;101997.25;5072891;28;20805;-74
2023/12/07 05:10:35;;;;;;;70.03;35.47;;;;;;;0.20;100.00;101986.78;5073685;28;20040;-73
2023/12/07 05:13:01;;;;;;;77.18;36.50;;;;;;;0.22;100.00;101986.78;5078723;28;20054;-73
2023/12/07 05:15:26;;;;;;;72.82;35.30;;;;;;;0.32;100.00;101983.25;5053094;28;20037;-73
2023/12/07 05:17:52;;;;;;;64.72;33.40;;;;;;;0.32;100.00;101978.00;5073652;28;20835;-74
2023/12/07 05:20:22;;;;;;;71.28;36.65;;;;;;;0.21;100.00;101983.28;5071857;28;20519;-73
2023/12/07 05:22:47;;;;;;;83.97;39.75;;;;;;;0.35;100.00;101983.25;5053379;28;20028;-73
2023/12/07 05:25:13;;;;;;;98.32;42.08;;;;;;;0.43;100.00;101985.84;5073508;28;20033;-74
2023/12/07 05:27:38;;;;;;;94.15;42.85;;;;;;;0.42;100.00;101981.47;5056679;28;20036;-74
2023/12/07 05:30:04;;;;;;;178.15;56.00;;;;;;;0.45;100.00;101984.06;5076660;27;20036;-73
2023/12/07 05:32:30;;;;;;;144.55;49.83;;;;;;;0.50;100.00;101982.28;5075668;27;20040;-74
2023/12/07 05:34:55;;;;;;;188.05;57.53;;;;;;;0.58;100.00;101977.91;5076598;28;20037;-74
2023/12/07 05:37:21;;;;;;;466.10;86.88;;;;;;;0.47;100.00;101980.56;5079775;27;20083;-74
2023/12/07 05:39:46;;;;;;;318.75;70.72;;;;;;;0.48;100.00;101981.44;5078372;28;20890;-74
2023/12/07 05:42:12;;;;;;;350.13;70.03;;;;;;;0.35;100.00;101988.50;5078775;27;20039;-74
2023/12/07 05:44:37;;;;;;;276.38;62.42;;;;;;;0.40;100.00;101989.34;5080492;27;20110;-74
2023/12/07 05:47:03;;;;;;;396.52;74.18;;;;;;;0.47;100.00;101985.81;5049536;28;20458;-74
2023/12/07 05:49:29;;;;;;;441.60;74.72;;;;;;;0.46;100.00;101983.22;5081062;28;20048;-74
2023/12/07 05:51:54;;;;;;;295.35;61.17;;;;;;;0.56;100.00;101984.06;5053280;28;20039;-74
2023/12/07 05:54:23;;;;;;;330.40;67.38;;;;;;;0.57;100.00;101985.78;5076454;28;20423;-74
2023/12/07 05:56:48;;;;;;;434.75;77.03;;;;;;;0.67;100.00;101979.63;5075188;28;20040;-74
2023/12/07 05:59:14;;;;;;;298.65;65.53;;;;;;;0.67;100.00;101977.88;5078607;28;20037;-73
2023/12/07 06:01:39;;;;;;;320.25;61.90;;;;;;;0.72;100.00;101980.47;5059487;28;20099;-75
2023/12/07 06:04:08;;;;;;;486.17;84.20;;;;;;;0.63;100.00;101978.75;5080686;28;20028;-73
2023/12/07 06:06:33;;;;;;;417.58;77.15;;;;;;;0.65;100.00;101981.38;5075956;28;20029;-73
2023/12/07 06:08:59;;;;;;;276.85;62.70;;;;;;;0.67;100.00;101983.13;5081376;28;20028;-73
2023/12/07 06:11:24;;;;;;;576.72;98.10;;;;;;;0.61;100.00;101983.16;5084429;27;20072;-74
2023/12/07 06:13:50;;;;;;;685.72;105.50;;;;;;;0.58;100.00;101980.53;5076394;28;20036;-74
2023/12/07 06:16:17;;;;;;;422.73;73.13;;;;;;;0.57;100.00;101986.66;5082097;28;20115;-74
2023/12/07 06:18:43;;;;;;;791.45;121.60;;;;;;;0.48;100.00;101984.94;5075907;28;20044;-74
2023/12/07 06:21:08;;;;;;;712.80;106.30;;;;;;;0.44;100.00;101988.44;5077967;28;20032;-73
2023/12/07 06:23:34;;;;;;;695.90;97.95;;;;;;;0.05;100.00;101996.41;5078111;28;20120;-73
2023/12/07 06:25:59;;;;;;;603.63;94.03;;;;;;;0.16;100.00;102013.03;5081125;27;20137;-73
2023/12/07 06:28:25;;;;;;;490.95;88.60;;;;;;;0.41;100.00;102016.47;5057069;28;20067;-73
2023/12/07 06:30:50;;;;;;;470.92;78.43;;;;;;;0.47;100.00;102008.56;5079110;28;20158;-74
2023/12/07 06:33:16;;;;;;;474.33;73.65;;;;;;;0.14;100.00;102012.13;5081256;28;20032;-74
2023/12/07 06:35:41;;;;;;;441.67;80.82;;;;;;;0.39;100.00;102019.06;5056875;28;20127;-73
2023/12/07 06:38:07;;;;;;;634.42;105.38;;;;;;;0.45;100.00;102011.22;5054077;28;20060;-74
2023/12/07 06:40:32;;;;;;;398.50;68.55;;;;;;;0.55;100.00;102019.88;5060145;28;20064;-73
2023/12/07 06:42:58;;;;;;;414.92;78.80;;;;;;;0.54;100.00;102012.91;5056247;28;20035;-73
2023/12/07 06:45:24;;;;;;;397.13;76.10;;;;;;;0.53;100.00;102011.16;5074263;28;20565;-73
2023/12/07 06:47:49;;;;;;;527.30;87.20;;;;;;;0.58;100.00;102011.16;5078717;28;29208;-73
2023/12/07 06:50:15;;;;;;;390.95;67.35;;;;;;;0.51;100.00;102008.56;5074005;28;20117;-74
2023/12/07 06:52:40;;;;;;;410.85;73.05;;;;;;;0.40;100.00;102005.09;5076822;27;20566;-74
2023/12/07 06:55:06;;;;;;;336.15;72.13;;;;;;;0.52;100.00;102009.44;5082729;27;20090;-73
2023/12/07 06:57:33;;;;;;;437.13;79.10;;;;;;;0.58;100.00;102006.78;5074132;28;20041;-73
2023/12/07 06:59:58;;;;;;;460.00;83.85;;;;;;;0.56;100.00;102007.69;5089085;27;20033;-73
2023/12/07 07:02:24;;;;;;;278.08;63.45;;;;;;;0.68;100.00;102011.13;5073783;27;20039;-73
2023/12/07 07:04:49;;;;;;;378.90;77.35;;;;;;;0.61;100.00;102009.41;5078395;28;20036;-73
2023/12/07 07:07:15;;;;;;;501.00;89.82;;;;;;;0.52;100.00;102001.56;5074278;28;20519;-73
2023/12/07 07:09:41;;;;;;;442.83;83.53;;;;;;;0.55;100.00;102000.66;5077770;27;20037;-74
2023/12/07 07:12:07;;;;;;;313.65;71.72;;;;;;;0.60;100.00;101999.75;5062128;28;20125;-73
2023/12/07 07:14:32;;;;;;;326.92;70.85;;;;;;;0.67;100.00;101998.88;5083613;27;20632;-73
2023/12/07 07:16:58;;;;;;;319.55;66.95;;;;;;;0.65;100.00;101998.03;5074428;28;20083;-74
2023/12/07 07:19:23;;;;;;;196.38;51.92;;;;;;;0.72;100.00;101996.22;5078203;27;20032;-73
2023/12/07 07:21:49;;;;;;;433.48;81.15;;;;;;;0.69;100.00;101991.84;5073151;28;20476;-73
2023/12/07 07:24:15;;;;;;;539.40;99.10;;;;;;;0.74;100.00;101999.72;5076466;28;20094;-74
2023/12/07 07:26:40;;;;;;;317.15;70.47;;;;;;;0.82;100.00;101997.94;5078758;28;20455;-73
2023/12/07 07:29:06;;;;;;;448.10;78.80;;;;;;;0.68;100.00;101999.75;5073117;28;20082;-74
2023/12/07 07:31:32;;;;;;;322.30;69.03;;;;;;;0.78;100.00;101998.81;5065154;28;20047;-73
2023/12/07 07:33:57;;;;;;;408.90;79.15;;;;;;;0.64;100.00;102006.75;5060514;28;20834;-73
2023/12/07 07:36:23;;;;;;;373.93;76.50;;;;;;;0.55;100.00;102009.41;5016579;28;1079315;-73
2023/12/07 07:38:48;;;;;;;412.58;76.05;;;;;;;0.48;100.00;102005.06;5063411;28;20052;-73
2023/12/07 07:41:14;;;;;;;510.38;89.47;;;;;;;0.50;100.00;102004.19;5062849;28;20048;-73
2023/12/07 07:43:40;;;;;;;372.10;71.05;;;;;;;0.54;100.00;102012.03;5055107;28;20028;-73
2023/12/07 07:46:06;;;;;;;248.52;59.72;;;;;;;0.60;100.00;102018.13;5059164;28;20094;-75
2023/12/07 07:48:32;;;;;;;246.65;64.78;;;;;;;0.65;100.00;102010.25;5061853;28;20039;-73
2023/12/07 07:50:58;;;;;;;418.33;83.43;;;;;;;0.62;100.00;102015.53;5075316;28;20036;-73
2023/12/07 07:53:23;;;;;;;355.20;71.57;;;;;;;0.45;100.00;102019.06;5080784;27;21527;-73
2023/12/07 07:55:49;;;;;;;539.15;96.30;;;;;;;0.45;100.00;102032.19;5074180;28;20051;-73
2023/12/07 07:58:14;;;;;;;488.25;87.43;;;;;;;0.51;100.00;102037.41;5075003;27;20060;-73
2023/12/07 08:00:40;;;;;;;465.15;82.10;;;;;;;0.45;100.00;102033.91;5075871;28;20048;-73
2023/12/07 08:03:05;;;;;;;530.70;92.75;;;;;;;0.29;100.00;102040.09;5074611;28;20110;-73
2023/12/07 08:05:31;;;;;;;408.45;71.35;;;;;;;0.43;100.00;102038.31;5078270;28;20110;-73
2023/12/07 08:07:56;;;;;;;321.48;71.40;;;;;;;0.65;100.00;102032.13;5057369;28;20850;-73
2023/12/07 08:10:22;;;;;;;508.20;90.20;;;;;;;0.69;100.00;102033.84;5079580;28;20125;-73
2023/12/07 08:12:47;;;;;;;340.60;73.30;;;;;;;0.65;100.00;102031.25;5073552;28;20041;-73
2023/12/07 08:15:13;;;;;;;378.13;78.82;;;;;;;0.69;100.00;102039.09;5080049;28;20775;-73
2023/12/07 08:17:42;;;;;;;390.15;82.93;;;;;;;0.70;100.00;102029.47;5072498;28;20048;-72
2023/12/07 08:20:11;;;;;;;352.55;76.18;;;;;;;0.77;100.00;102026.84;5076856;28;20173;-73
2023/12/07 08:22:37;;;;;;;369.77;82.53;;;;;;;0.80;100.00;102023.31;5079696;28;20036;-73
2023/12/07 08:25:05;;;;;;;423.40;77.20;;;;;;;0.73;100.00;102019.84;5079008;27;20111;-74
2023/12/07 08:27:34;;;;;;;387.45;79.72;;;;;;;0.83;100.00;102022.44;5077781;28;20029;-75
2023/12/07 08:30:00;;;;;;;422.65;92.53;;;;;;;0.87;100.00;102025.03;5059513;28;20048;-74
2023/12/07 08:32:26;;;;;;;372.77;81.40;;;;;;;0.92;100.00;102025.03;5057745;28;20037;-75
2023/12/07 08:34:52;;;;;;;293.00;70.40;;;;;;;0.93;100.00;102014.50;5054612;28;20044;-75
2023/12/07 08:37:18;;;;;;;469.85;84.88;;;;;;;0.85;100.00;102013.66;5081892;27;20140;-75
2023/12/07 08:39:43;;;;;;;488.27;82.80;;;;;;;0.70;100.00;102009.38;5074020;27;20075;-74
2023/12/07 08:42:09;;;;;;;305.48;70.05;;;;;;;0.84;100.00;102008.41;5061515;28;20036;-74
2023/12/07 08:44:34;;;;;;;290.33;64.20;;;;;;;0.93;100.00;102016.25;5081168;27;20028;-75
2023/12/07 08:47:00;;;;;;;244.40;60.05;;;;;;;0.92;100.00;102011.91;5074706;27;20032;-74
2023/12/07 08:49:25;;;;;;;470.60;87.00;;;;;;;0.80;100.00;102010.19;5075895;27;20029;-73
2023/12/07 08:51:53;;;;;;;583.28;99.40;;;;;;;1.00;100.00;102010.09;5054459;28;20044;-74
2023/12/07 08:54:18;;;;;;;365.50;76.13;;;;;;;1.11;100.00;102023.19;5054342;28;20117;-74
2023/12/07 08:56:45;;;;;;;236.48;58.45;;;;;;;1.17;100.00;102010.88;5072925;28;20044;-75
2023/12/07 08:59:10;;;;;;;406.08;65.75;;;;;;;0.94;100.00;102011.00;5072405;28;20060;-74
2023/12/07 09:01:36;;;;;;;401.48;72.53;;;;;;;1.03;100.00;102010.09;5077083;28;20028;-74
2023/12/07 09:04:02;;;;;;;315.73;63.13;;;;;;;1.09;100.00;102011.81;5072054;28;20037;-74
2023/12/07 09:06:27;;;;;;;580.05;91.65;;;;;;;0.90;100.00;102016.25;5073584;28;20035;-73
2023/12/07 09:08:53;;;;;;;593.40;96.30;;;;;;;0.88;100.00;102021.53;5054440;28;20083;-74
2023/12/07 09:11:19;;;;;;;287.83;59.85;;;;;;;1.07;100.00;102009.19;5074628;28;20044;-73
2023/12/07 09:13:44;;;;;;;421.17;79.50;;;;;;;1.20;100.00;102008.22;5078268;28;20090;-73
2023/12/07 09:16:09;;;;;;;411.40;71.35;;;;;;;1.19;100.00;102009.13;5071595;28;20943;-73
2023/12/07 09:18:36;;;;;;;448.73;68.88;;;;;;;0.50;100.00;102008.53;5071211;28;20037;-73
2023/12/07 09:21:02;;;;;;;227.25;51.40;;;;;;;0.88;100.00;102012.78;5076744;28;20508;-73
2023/12/07 09:23:28;;;;;;;281.83;55.55;;;;;;;1.03;100.00;102015.34;5058948;28;20036;-73
2023/12/07 09:25:54;;;;;;;344.65;59.00;;;;;;;1.13;100.00;102022.28;5067029;27;20062;-72
2023/12/07 09:28:19;;;;;;;261.90;51.17;;;;;;;1.13;100.00;102024.03;5081590;28;20035;-73
2023/12/07 09:30:45;;;;;;;278.00;51.92;;;;;;;1.33;100.00;102014.28;5074948;27;20098;-73
2023/12/07 09:33:10;;;;;;;232.15;47.83;;;;;;;1.41;100.00;102007.25;5081798;28;20036;-73
2023/12/07 09:35:36;;;;;;;203.30;45.47;;;;;;;1.44;100.00;102007.19;5073361;28;20076;-73
2023/12/07 09:38:02;;;;;;;264.73;48.55;;;;;;;1.43;100.00;102007.22;5058723;28;20820;-73
2023/12/07 09:40:28;;;;;;;206.73;41.50;;;;;;;1.34;100.00;102002.88;5071646;27;21030;-73
2023/12/07 09:42:54;;;;;;;234.02;45.40;;;;;;;1.42;100.00;102001.09;5062174;28;21095;-73
2023/12/07 09:45:21;;;;;;;226.13;42.72;;;;;;;1.42;100.00;102005.47;5077717;27;20110;-73
2023/12/07 09:47:53;;;;;;;112.72;28.90;;;;;;;1.44;100.00;101998.44;5081158;28;20115;-73
2023/12/07 09:50:26;;;;;;;148.60;30.55;;;;;;;1.42;100.00;101993.22;5074630;28;21480;-74
2023/12/07 09:52:56;;;;;;;168.23;33.97;;;;;;;1.45;100.00;101993.16;5072874;28;20055;-73
2023/12/07 09:55:22;;;;;;;145.23;32.33;;;;;;;1.43;100.00;101997.56;5075336;28;20036;-73
2023/12/07 09:57:48;;;;;;;166.32;35.58;;;;;;;1.52;100.00;101994.88;5074373;28;20507;-72
2023/12/07 10:00:14;;;;;;;201.93;35.15;;;;;;;1.12;100.00;101993.41;5076937;27;20098;-73
2023/12/07 10:02:42;;;;;;;226.32;40.85;;;;;;;1.43;100.00;101983.56;5074546;28;20462;-73
2023/12/07 10:05:21;;;;;;;106.57;29.27;;;;;;;1.56;100.00;101982.59;5072739;28;20037;-73
2023/12/07 10:07:49;;;;;;;126.32;30.85;;;;;;;1.64;100.00;101988.66;5082118;28;20047;-74
2023/12/07 10:10:17;;;;;;;134.95;31.42;;;;;;;1.56;100.00;101982.59;5073190;28;20068;-73
2023/12/07 10:12:53;;;;;;;129.80;33.25;;;;;;;1.50;100.00;101974.75;5075620;28;20032;-73
2023/12/07 10:15:20;;;;;;;134.50;31.88;;;;;;;1.48;100.00;101979.16;5070926;28;20120;-73
2023/12/07 10:17:58;;;;;;;127.15;32.97;;;;;;;1.56;100.00;101969.47;5077506;28;20044;-73
2023/12/07 10:20:25;;;;;;;125.82;30.08;;;;;;;1.67;100.00;101970.25;5076641;28;20048;-73
2023/12/07 10:23:04;;;;;;;128.93;31.48;;;;;;;1.85;100.00;101968.31;5085680;28;21174;-74
2023/12/07 10:25:37;;;;;;;137.38;33.10;;;;;;;1.94;100.00;101963.84;5074720;28;20037;-74
2023/12/07 10:28:11;;;;;;;145.88;34.03;;;;;;;2.03;100.00;101963.75;5086730;28;20028;-74
2023/12/07 10:30:41;;;;;;;108.38;30.65;;;;;;;2.00;100.00;101945.38;5066399;27;20033;-76
2023/12/07 10:33:07;;;;;;;140.57;32.67;;;;;;;2.09;100.00;101936.50;5064748;28;20032;-74
2023/12/07 10:35:33;;;;;;;116.95;31.80;;;;;;;2.00;100.00;101939.25;5080616;28;20035;-74
2023/12/07 10:37:58;;;;;;;114.47;33.30;;;;;;;1.85;100.00;101935.00;5054133;28;20440;-76
2023/12/07 10:40:24;;;;;;;152.50;37.08;;;;;;;1.80;100.00;101926.28;5060644;28;20044;-75
2023/12/07 10:42:53;;;;;;;156.05;36.72;;;;;;;2.10;100.00;101927.72;5061397;28;20055;-75
2023/12/07 10:45:21;;;;;;;105.07;33.00;;;;;;;2.08;100.00;101921.63;5062998;28;20043;-75
2023/12/07 10:47:48;;;;;;;139.38;39.25;;;;;;;2.14;100.00;101921.56;5054623;28;20049;-75
2023/12/07 10:50:19;;;;;;;105.53;34.85;;;;;;;2.31;100.00;101910.84;5055724;28;20028;-74
2023/12/07 10:52:53;;;;;;;123.35;36.85;;;;;;;2.37;100.00;101913.41;5060214;28;20533;-76
2023/12/07 10:55:26;;;;;;;122.75;36.70;;;;;;;2.48;100.00;101911.50;5057207;28;20435;-75
2023/12/07 10:57:53;;;;;;;131.85;37.55;;;;;;;2.34;100.00;101900.28;5060131;28;20051;-75